createdAt,value
2018-02-04T00:01:35.073Z,77.38
2018-02-04T00:04:02.923Z,77.08
2018-02-04T00:06:30.495Z,77.14
2018-02-04T00:08:58.094Z,77.02
2018-02-04T00:11:25.731Z,77.13
2018-02-04T00:13:53.291Z,77.27
2018-02-04T00:16:20.873Z,77.70
2018-02-04T00:18:48.705Z,78.25
2018-02-04T00:21:16.280Z,78.36
2018-02-04T00:23:44.014Z,78.41
2018-02-04T00:26:11.694Z,78.46
2018-02-04T00:28:39.361Z,78.06
2018-02-04T00:31:07.000Z,78.02
2018-02-04T00:33:34.672Z,78.15
2018-02-04T00:36:02.229Z,78.18
2018-02-04T00:38:29.811Z,78.24
2018-02-04T00:40:57.422Z,78.48
2018-02-04T00:43:24.975Z,78.17
2018-02-04T00:45:52.532Z,78.30
2018-02-04T00:48:20.132Z,78.45
2018-02-04T00:50:47.709Z,78.61
2018-02-04T00:53:15.269Z,78.76
2018-02-04T00:55:43.101Z,78.80
2018-02-04T00:58:10.695Z,79.18
2018-02-04T01:00:38.361Z,79.20
2018-02-04T01:03:05.959Z,79.20
2018-02-04T01:05:33.665Z,79.27
2018-02-04T01:08:01.344Z,79.43
2018-02-04T01:10:29.211Z,79.15
2018-02-04T01:12:56.853Z,78.95
2018-02-04T01:15:24.420Z,78.49
2018-02-04T01:17:52.079Z,78.02
2018-02-04T01:20:19.646Z,77.71
2018-02-04T01:22:47.213Z,77.56
2018-02-04T01:25:14.802Z,77.20
2018-02-04T01:27:42.392Z,77.07
2018-02-04T01:30:09.942Z,77.56
2018-02-04T01:32:37.561Z,78.42
2018-02-04T01:35:05.102Z,79.03
2018-02-04T01:37:32.676Z,79.66
2018-02-04T01:40:00.288Z,80.25
2018-02-04T01:42:27.842Z,81.51
2018-02-04T01:44:55.401Z,82.52
2018-02-04T01:47:23.011Z,83.08
2018-02-04T01:49:50.780Z,83.54
2018-02-04T01:52:18.459Z,84.02
2018-02-04T01:54:46.067Z,84.24
2018-02-04T01:57:13.660Z,85.21
2018-02-04T01:59:41.207Z,85.83
2018-02-04T02:02:08.824Z,86.44
2018-02-04T02:04:36.404Z,87.10
2018-02-04T02:07:03.962Z,87.64
2018-02-04T02:09:31.671Z,86.81
2018-02-04T02:11:59.258Z,87.37
2018-02-04T02:14:26.972Z,87.96
2018-02-04T02:16:54.549Z,87.38
2018-02-04T02:19:22.333Z,87.41
2018-02-04T02:21:49.894Z,87.45
2018-02-04T02:24:17.645Z,87.47
2018-02-04T02:26:45.248Z,88.64
2018-02-04T02:29:12.812Z,89.20
2018-02-04T02:31:40.401Z,89.44
2018-02-04T02:34:07.934Z,89.96
2018-02-04T02:36:35.491Z,90.35
2018-02-04T02:39:03.129Z,91.17
2018-02-04T02:41:30.712Z,91.13
2018-02-04T02:43:58.275Z,90.83
2018-02-04T02:46:26.605Z,90.50
2018-02-04T02:48:54.165Z,90.15
2018-02-04T02:51:21.728Z,89.97
2018-02-04T02:53:49.344Z,89.75
2018-02-04T02:56:17.026Z,89.16
2018-02-04T02:58:44.722Z,89.45
2018-02-04T03:01:12.319Z,89.43
2018-02-04T03:03:39.864Z,89.44
2018-02-04T03:06:07.406Z,89.61
2018-02-04T03:08:34.988Z,89.84
2018-02-04T03:11:02.545Z,90.37
2018-02-04T03:13:30.095Z,90.39
2018-02-04T03:15:57.681Z,90.40
2018-02-04T03:18:25.370Z,91.44
2018-02-04T03:20:52.915Z,91.32
2018-02-04T03:23:20.503Z,91.02
2018-02-04T03:25:48.070Z,90.50
2018-02-04T03:28:15.615Z,90.64
2018-02-04T03:30:43.214Z,90.79
2018-02-04T03:33:10.826Z,91.18
2018-02-04T03:35:38.368Z,91.20
2018-02-04T03:38:05.965Z,91.62
2018-02-04T03:40:33.510Z,91.73
2018-02-04T03:43:01.068Z,91.23
2018-02-04T03:45:28.661Z,90.72
2018-02-04T03:47:56.234Z,91.02
2018-02-04T03:50:23.967Z,91.09
2018-02-04T03:52:51.567Z,91.02
2018-02-04T03:55:19.114Z,90.91
2018-02-04T03:57:46.677Z,90.84
2018-02-04T04:00:14.296Z,91.16
2018-02-04T04:02:41.863Z,90.94
2018-02-04T04:05:09.450Z,91.14
2018-02-04T04:07:37.393Z,91.45
2018-02-04T04:10:04.987Z,91.16
2018-02-04T04:12:32.546Z,91.35
2018-02-04T04:15:00.195Z,91.55
2018-02-04T04:17:27.856Z,91.75
2018-02-04T04:19:55.510Z,91.60
2018-02-04T04:22:23.132Z,91.42
2018-02-04T04:24:50.697Z,91.64
2018-02-04T04:27:18.244Z,91.56
2018-02-04T04:29:45.841Z,91.75
2018-02-04T04:32:13.431Z,91.72
2018-02-04T04:34:41.065Z,91.48
2018-02-04T04:37:08.676Z,91.35
2018-02-04T04:39:36.242Z,91.24
2018-02-04T04:42:03.813Z,91.34
2018-02-04T04:44:31.522Z,91.36
2018-02-04T04:46:59.084Z,91.17
2018-02-04T04:49:26.649Z,91.41
2018-02-04T04:51:54.288Z,91.42
2018-02-04T04:54:21.868Z,91.10
2018-02-04T04:56:49.484Z,90.99
2018-02-04T04:59:17.289Z,91.05
2018-02-04T05:01:45.370Z,91.00
2018-02-04T05:04:12.935Z,91.09
2018-02-04T05:06:40.523Z,91.45
2018-02-04T05:09:08.084Z,91.03
2018-02-04T05:11:35.812Z,91.13
2018-02-04T05:14:03.397Z,91.65
2018-02-04T05:16:31.071Z,91.81
2018-02-04T05:18:58.799Z,91.81
2018-02-04T05:21:26.445Z,91.75
2018-02-04T05:23:54.124Z,91.56
2018-02-04T05:26:21.754Z,91.86
2018-02-04T05:28:49.363Z,91.90
2018-02-04T05:31:16.915Z,91.56
2018-02-04T05:33:44.497Z,91.18
2018-02-04T05:36:12.105Z,91.15
2018-02-04T05:38:39.873Z,91.26
2018-02-04T05:41:07.532Z,91.27
2018-02-04T05:43:35.136Z,91.20
2018-02-04T05:46:02.680Z,91.03
2018-02-04T05:48:30.317Z,91.35
2018-02-04T05:50:58.002Z,91.37
2018-02-04T05:53:25.559Z,91.44
2018-02-04T05:55:53.282Z,91.68
2018-02-04T05:58:20.878Z,91.09
2018-02-04T06:00:48.650Z,90.61
2018-02-04T06:03:16.354Z,90.93
2018-02-04T06:05:43.987Z,90.85
2018-02-04T06:08:11.536Z,90.94
2018-02-04T06:10:39.280Z,90.71
2018-02-04T06:13:06.887Z,90.63
2018-02-04T06:15:34.623Z,90.67
2018-02-04T06:18:02.166Z,90.77
2018-02-04T06:20:29.795Z,90.34
2018-02-04T06:22:57.404Z,90.04
2018-02-04T06:25:25.026Z,89.94
2018-02-04T06:27:52.664Z,90.17
2018-02-04T06:30:20.385Z,90.21
2018-02-04T06:32:47.996Z,90.73
2018-02-04T06:35:15.606Z,90.84
2018-02-04T06:37:43.167Z,90.86
2018-02-04T06:40:10.805Z,91.00
2018-02-04T06:42:38.408Z,90.99
2018-02-04T06:45:05.975Z,90.96
2018-02-04T06:47:33.544Z,90.90
2018-02-04T06:50:01.139Z,90.88
2018-02-04T06:52:28.724Z,91.08
2018-02-04T06:54:56.351Z,90.99
2018-02-04T06:57:23.960Z,90.69
2018-02-04T06:59:51.703Z,90.44
2018-02-04T07:02:19.372Z,90.31
2018-02-04T07:04:46.961Z,90.51
2018-02-04T07:07:14.521Z,90.79
2018-02-04T07:09:42.078Z,90.65
2018-02-04T07:12:09.831Z,90.69
2018-02-04T07:14:37.475Z,90.46
2018-02-04T07:17:05.039Z,90.17
2018-02-04T07:19:32.816Z,90.19
2018-02-04T07:22:00.417Z,90.30
2018-02-04T07:24:28.112Z,89.88
2018-02-04T07:26:55.711Z,90.40
2018-02-04T07:29:23.286Z,90.32
2018-02-04T07:31:51.143Z,90.28
2018-02-04T07:34:19.234Z,90.50
2018-02-04T07:36:46.796Z,90.27
2018-02-04T07:39:14.509Z,90.13
2018-02-04T07:41:42.086Z,89.82
2018-02-04T07:44:09.644Z,89.65
2018-02-04T07:46:37.196Z,89.93
2018-02-04T07:49:04.793Z,89.92
2018-02-04T07:51:32.345Z,90.16
2018-02-04T07:53:59.897Z,89.74
2018-02-04T07:56:27.606Z,89.11
2018-02-04T07:58:55.520Z,89.04
2018-02-04T08:01:23.092Z,89.17
2018-02-04T08:03:50.920Z,89.59
2018-02-04T08:06:19.421Z,90.21
2018-02-04T08:08:47.161Z,89.40
2018-02-04T08:11:14.832Z,88.71
2018-02-04T08:13:42.374Z,89.55
2018-02-04T08:16:09.934Z,89.66
2018-02-04T08:18:37.501Z,90.09
2018-02-04T08:21:05.051Z,89.91
2018-02-04T08:23:32.728Z,89.27
2018-02-04T08:26:00.307Z,88.24
2018-02-04T08:28:27.844Z,87.72
2018-02-04T08:30:55.523Z,87.14
2018-02-04T08:33:23.376Z,87.76
2018-02-04T08:35:51.050Z,87.75
2018-02-04T08:38:18.624Z,87.88
2018-02-04T08:40:46.228Z,87.67
2018-02-04T08:43:13.801Z,86.61
2018-02-04T08:45:41.512Z,86.67
2018-02-04T08:48:09.170Z,87.06
2018-02-04T08:50:36.835Z,85.65
2018-02-04T08:53:04.486Z,85.58
2018-02-04T08:55:32.140Z,85.84
2018-02-04T08:57:59.712Z,85.75
2018-02-04T09:00:27.257Z,85.98
2018-02-04T09:02:54.926Z,86.16
2018-02-04T09:05:22.585Z,87.03
2018-02-04T09:07:50.157Z,86.76
2018-02-04T09:10:17.754Z,87.37
2018-02-04T09:12:45.415Z,88.14
2018-02-04T09:15:12.982Z,86.57
2018-02-04T09:17:40.574Z,86.25
2018-02-04T09:20:08.132Z,86.74
2018-02-04T09:22:35.806Z,86.26
2018-02-04T09:25:03.490Z,84.98
2018-02-04T09:27:31.065Z,84.46
2018-02-04T09:29:58.643Z,85.68
2018-02-04T09:32:26.481Z,85.21
2018-02-04T09:34:54.375Z,85.82
2018-02-04T09:37:21.972Z,84.21
2018-02-04T09:39:49.647Z,83.43
2018-02-04T09:42:17.214Z,83.66
2018-02-04T09:44:44.773Z,85.18
2018-02-04T09:47:12.457Z,85.78
2018-02-04T09:49:40.099Z,86.64
2018-02-04T09:52:07.667Z,86.76
2018-02-04T09:54:35.268Z,86.00
2018-02-04T09:57:02.842Z,86.29
2018-02-04T09:59:30.407Z,86.48
2018-02-04T10:01:58.220Z,86.58
2018-02-04T10:04:31.394Z,86.22
2018-02-04T10:06:59.046Z,85.42
2018-02-04T10:09:26.722Z,84.31
2018-02-04T10:11:54.410Z,84.65
2018-02-04T10:14:22.011Z,84.63
2018-02-04T10:16:49.577Z,85.10
2018-02-04T10:19:17.201Z,84.98
2018-02-04T10:21:44.844Z,84.98
2018-02-04T10:24:12.504Z,84.87
2018-02-04T10:26:40.568Z,84.39
2018-02-04T10:29:08.190Z,86.47
2018-02-04T10:31:35.766Z,85.89
2018-02-04T10:34:03.371Z,85.22
2018-02-04T10:36:30.943Z,84.61
2018-02-04T10:38:58.803Z,84.87
2018-02-04T10:41:26.433Z,84.72
2018-02-04T10:43:54.039Z,83.29
2018-02-04T10:46:21.602Z,83.83
2018-02-04T10:48:49.221Z,82.94
2018-02-04T10:51:22.276Z,83.20
2018-02-04T10:53:49.958Z,83.91
2018-02-04T10:56:17.632Z,84.63
2018-02-04T10:58:45.231Z,83.91
2018-02-04T11:01:12.816Z,84.71
2018-02-04T11:03:40.370Z,83.61
2018-02-04T11:06:07.982Z,83.36
2018-02-04T11:08:35.742Z,83.57
2018-02-04T11:11:03.545Z,83.42
2018-02-04T11:13:31.112Z,83.22
2018-02-04T11:15:58.687Z,82.94
2018-02-04T11:18:26.239Z,83.94
2018-02-04T11:20:53.777Z,83.82
2018-02-04T11:23:21.361Z,83.73
2018-02-04T11:25:48.916Z,83.36
2018-02-04T11:28:16.469Z,82.62
2018-02-04T11:30:44.033Z,83.38
2018-02-04T11:33:11.761Z,84.06
2018-02-04T11:35:39.306Z,84.06
2018-02-04T11:38:06.928Z,84.96
2018-02-04T11:40:34.531Z,86.46
2018-02-04T11:43:02.098Z,86.81
2018-02-04T11:45:29.843Z,85.21
2018-02-04T11:47:57.393Z,84.93
2018-02-04T11:50:24.980Z,86.33
2018-02-04T11:52:52.865Z,86.81
2018-02-04T11:55:20.516Z,86.82
2018-02-04T11:57:48.117Z,84.77
2018-02-04T12:00:15.745Z,85.43
2018-02-04T12:02:43.294Z,85.40
2018-02-04T12:05:10.874Z,86.23
2018-02-04T12:07:38.662Z,85.87
2018-02-04T12:10:06.263Z,84.87
2018-02-04T12:12:33.824Z,85.36
2018-02-04T12:15:01.423Z,87.11
2018-02-04T12:17:28.977Z,87.68
2018-02-04T12:19:56.529Z,88.28
2018-02-04T12:22:24.132Z,88.15
2018-02-04T12:24:51.734Z,88.95
2018-02-04T12:27:19.296Z,88.95
2018-02-04T12:29:46.878Z,88.49
2018-02-04T12:32:14.473Z,88.37
2018-02-04T12:34:42.020Z,88.65
2018-02-04T12:37:09.639Z,87.55
2018-02-04T12:39:38.034Z,85.47
2018-02-04T12:42:05.667Z,86.13
2018-02-04T12:44:33.282Z,86.39
2018-02-04T12:47:00.935Z,85.59
2018-02-04T12:49:28.536Z,86.29
2018-02-04T12:51:56.335Z,86.06
2018-02-04T12:54:23.986Z,86.83
2018-02-04T12:56:51.556Z,86.91
2018-02-04T12:59:19.132Z,86.59
2018-02-04T13:01:46.685Z,86.77
2018-02-04T13:04:14.222Z,86.64
2018-02-04T13:06:41.825Z,86.71
2018-02-04T13:09:09.562Z,86.61
2018-02-04T13:11:37.125Z,86.29
2018-02-04T13:14:04.722Z,88.50
2018-02-04T13:16:32.287Z,87.09
2018-02-04T13:18:59.856Z,86.33
2018-02-04T13:21:27.448Z,85.82
2018-02-04T13:23:55.015Z,85.61
2018-02-04T13:26:22.580Z,84.55
2018-02-04T13:28:50.249Z,83.82
2018-02-04T13:31:17.809Z,85.11
2018-02-04T13:33:45.368Z,85.46
2018-02-04T13:36:12.975Z,84.99
2018-02-04T13:38:40.557Z,84.66
2018-02-04T13:41:08.157Z,84.01
2018-02-04T13:43:35.811Z,83.98
2018-02-04T13:46:03.371Z,83.02
2018-02-04T13:48:30.941Z,83.94
2018-02-04T13:50:58.538Z,83.31
2018-02-04T13:53:26.102Z,81.93
2018-02-04T13:55:53.667Z,80.30
2018-02-04T13:58:21.341Z,81.24
2018-02-04T14:00:48.906Z,82.56
2018-02-04T14:03:16.675Z,83.47
2018-02-04T14:05:44.283Z,82.70
2018-02-04T14:08:11.840Z,83.39
2018-02-04T14:10:39.395Z,83.09
2018-02-04T14:13:07.022Z,81.41
2018-02-04T14:15:34.575Z,79.99
2018-02-04T14:18:02.116Z,78.96
2018-02-04T14:20:29.716Z,80.80
2018-02-04T14:22:57.324Z,80.96
2018-02-04T14:25:24.944Z,81.29
2018-02-04T14:27:52.585Z,80.89
2018-02-04T14:30:20.123Z,81.23
2018-02-04T14:32:47.683Z,80.65
2018-02-04T14:35:15.269Z,78.57
2018-02-04T14:37:42.863Z,79.50
2018-02-04T14:40:10.425Z,79.95
2018-02-04T14:42:38.001Z,79.21
2018-02-04T14:45:05.732Z,78.76
2018-02-04T14:47:33.333Z,81.36
2018-02-04T14:50:00.967Z,79.97
2018-02-04T14:52:28.535Z,79.02
2018-02-04T14:54:56.090Z,77.89
2018-02-04T14:57:23.702Z,78.09
2018-02-04T14:59:51.254Z,78.09
2018-02-04T15:02:18.835Z,77.74
2018-02-04T15:04:46.429Z,78.66
2018-02-04T15:07:13.996Z,79.49
2018-02-04T15:09:41.562Z,80.20
2018-02-04T15:12:09.165Z,81.67
2018-02-04T15:14:36.711Z,82.85
2018-02-04T15:17:04.277Z,83.64
2018-02-04T15:19:31.864Z,85.00
2018-02-04T15:21:59.497Z,86.03
2018-02-04T15:24:27.095Z,86.62
2018-02-04T15:26:54.700Z,87.17
2018-02-04T15:29:22.317Z,87.33
2018-02-04T15:31:49.877Z,87.59
2018-02-04T15:34:17.468Z,88.16
2018-02-04T15:36:45.041Z,88.32
2018-02-04T15:39:12.610Z,88.25
2018-02-04T15:41:40.201Z,87.68
2018-02-04T15:44:07.766Z,87.71
2018-02-04T15:46:35.326Z,88.10
2018-02-04T15:49:02.929Z,88.37
2018-02-04T15:51:30.515Z,88.30
2018-02-04T15:53:58.090Z,88.43
2018-02-04T15:56:25.709Z,89.52
2018-02-04T15:58:53.262Z,89.31
2018-02-04T16:01:20.840Z,88.85
2018-02-04T16:03:48.511Z,89.14
2018-02-04T16:06:16.072Z,90.17
2018-02-04T16:08:43.650Z,90.10
2018-02-04T16:11:11.234Z,90.58
2018-02-04T16:13:39.032Z,90.78
2018-02-04T16:16:06.592Z,91.00
2018-02-04T16:18:34.345Z,91.37
2018-02-04T16:21:02.403Z,91.36
2018-02-04T16:23:30.679Z,91.47
2018-02-04T16:25:58.870Z,91.48
2018-02-04T16:28:27.103Z,91.25
2018-02-04T16:30:55.298Z,91.14
2018-02-04T16:33:23.508Z,91.13
2018-02-04T16:35:51.817Z,90.78
2018-02-04T16:38:20.274Z,90.35
2018-02-04T16:40:49.210Z,90.24
2018-02-04T16:43:18.144Z,90.29
2018-02-04T16:45:48.325Z,89.94
2018-02-04T16:48:16.896Z,88.62
2018-02-04T16:50:45.748Z,87.62
2018-02-04T16:53:13.489Z,87.27
2018-02-04T16:55:41.570Z,86.03
2018-02-04T16:58:09.943Z,87.30
2018-02-04T17:00:37.805Z,86.58
2018-02-04T17:03:05.381Z,86.57
2018-02-04T17:05:33.317Z,86.04
2018-02-04T17:08:01.112Z,85.38
2018-02-04T17:10:29.160Z,84.97
2018-02-04T17:12:57.032Z,84.38
2018-02-04T17:15:24.684Z,84.64
2018-02-04T17:17:52.267Z,85.20
2018-02-04T17:20:19.850Z,85.35
2018-02-04T17:22:47.430Z,85.33
2018-02-04T17:25:15.025Z,85.47
2018-02-04T17:27:42.788Z,85.58
2018-02-04T17:30:10.635Z,85.59
2018-02-04T17:32:38.194Z,86.00
2018-02-04T17:35:05.789Z,86.72
2018-02-04T17:37:33.453Z,87.28
2018-02-04T17:40:01.301Z,87.61
2018-02-04T17:42:28.848Z,88.71
2018-02-04T17:44:57.058Z,89.32
2018-02-04T17:47:24.783Z,90.37
2018-02-04T17:49:52.400Z,90.85
2018-02-04T17:52:20.030Z,91.53
2018-02-04T17:54:47.681Z,91.82
2018-02-04T17:57:15.268Z,91.98
2018-02-04T17:59:42.867Z,92.07
2018-02-04T18:02:10.430Z,91.69
2018-02-04T18:04:37.982Z,91.56
2018-02-04T18:07:05.593Z,91.48
2018-02-04T18:09:33.811Z,91.63
2018-02-04T18:12:01.378Z,91.47
2018-02-04T18:14:29.815Z,91.78
2018-02-04T18:16:57.388Z,91.62
2018-02-04T18:19:25.074Z,91.96
2018-02-04T18:21:52.666Z,92.33
2018-02-04T18:24:20.348Z,92.44
2018-02-04T18:26:47.961Z,92.42
2018-02-04T18:29:15.600Z,92.29
2018-02-04T18:31:43.159Z,91.97
2018-02-04T18:34:10.817Z,92.10
2018-02-04T18:36:38.619Z,91.94
2018-02-04T18:39:06.182Z,92.62
2018-02-04T18:41:33.759Z,92.93
2018-02-04T18:44:01.441Z,93.11
2018-02-04T18:46:29.746Z,93.41
2018-02-04T18:48:57.393Z,93.53
2018-02-04T18:51:25.012Z,93.18
2018-02-04T18:53:52.696Z,92.85
2018-02-04T18:56:20.479Z,92.70
2018-02-04T18:58:48.260Z,92.57
2018-02-04T19:01:15.921Z,92.76
2018-02-04T19:03:43.553Z,93.09
2018-02-04T19:06:11.147Z,93.19
2018-02-04T19:08:38.706Z,92.88
2018-02-04T19:11:06.367Z,92.73
2018-02-04T19:13:33.956Z,93.27
2018-02-04T19:16:01.673Z,92.84
2018-02-04T19:18:29.340Z,92.86
2018-02-04T19:20:56.937Z,91.75
2018-02-04T19:23:24.511Z,92.13
2018-02-04T19:25:52.082Z,91.99
2018-02-04T19:28:19.675Z,91.53
2018-02-04T19:30:47.243Z,91.03
2018-02-04T19:33:14.804Z,90.73
2018-02-04T19:35:42.558Z,90.85
2018-02-04T19:38:10.132Z,90.86
2018-02-04T19:40:37.869Z,90.71
2018-02-04T19:43:05.468Z,90.36
2018-02-04T19:45:33.021Z,90.05
2018-02-04T19:48:00.575Z,88.50
2018-02-04T19:50:28.190Z,88.29
2018-02-04T19:52:55.767Z,88.88
2018-02-04T19:55:23.324Z,88.97
2018-02-04T19:57:50.920Z,88.83
2018-02-04T20:00:18.587Z,88.40
2018-02-04T20:02:46.140Z,87.45
2018-02-04T20:05:13.741Z,87.60
2018-02-04T20:07:41.366Z,88.25
2018-02-04T20:10:09.339Z,89.33
2018-02-04T20:12:36.934Z,89.62
2018-02-04T20:15:04.744Z,90.15
2018-02-04T20:17:34.062Z,90.27
2018-02-04T20:20:01.714Z,90.13
2018-02-04T20:22:29.264Z,90.29
2018-02-04T20:24:56.806Z,89.85
2018-02-04T20:27:24.388Z,90.56
2018-02-04T20:29:51.963Z,91.50
2018-02-04T20:32:31.189Z,90.50
2018-02-04T20:35:00.400Z,90.47
2018-02-04T20:37:28.032Z,90.79
2018-02-04T20:39:55.706Z,91.24
2018-02-04T20:42:23.382Z,91.27
2018-02-04T20:44:51.237Z,91.23
2018-02-04T20:47:18.896Z,90.54
2018-02-04T20:49:47.101Z,90.85
2018-02-04T20:52:15.436Z,90.90
2018-02-04T20:54:43.162Z,91.34
2018-02-04T20:57:10.724Z,91.55
2018-02-04T20:59:38.510Z,91.67
2018-02-04T21:02:06.102Z,91.72
2018-02-04T21:04:33.662Z,91.85
2018-02-04T21:07:01.232Z,91.73
2018-02-04T21:09:28.859Z,92.11
2018-02-04T21:11:56.410Z,92.13
2018-02-04T21:14:23.992Z,91.76
2018-02-04T21:16:51.604Z,91.67
2018-02-04T21:19:19.316Z,91.22
2018-02-04T21:21:47.004Z,90.62
2018-02-04T21:24:14.631Z,90.73
2018-02-04T21:26:42.260Z,90.18
2018-02-04T21:29:10.003Z,90.62
2018-02-04T21:31:38.081Z,88.95
2018-02-04T21:34:05.913Z,88.98
2018-02-04T21:36:33.598Z,88.61
2018-02-04T21:39:01.194Z,87.81
2018-02-04T21:41:28.764Z,87.29
2018-02-04T21:43:56.315Z,87.39
2018-02-04T21:46:23.901Z,86.78
2018-02-04T21:48:51.463Z,85.62
2018-02-04T21:51:19.013Z,85.89
2018-02-04T21:53:46.592Z,85.22
2018-02-04T21:56:14.145Z,85.36
2018-02-04T21:58:41.695Z,85.14
2018-02-04T22:01:09.299Z,85.56
2018-02-04T22:03:36.886Z,85.39
2018-02-04T22:06:04.464Z,85.34
2018-02-04T22:08:32.078Z,85.63
2018-02-04T22:10:59.632Z,86.28
2018-02-04T22:13:27.202Z,87.03
2018-02-04T22:15:54.794Z,86.82
2018-02-04T22:18:22.363Z,87.40
2018-02-04T22:20:49.938Z,87.02
2018-02-04T22:23:17.525Z,86.61
2018-02-04T22:25:45.283Z,86.87
2018-02-04T22:28:12.843Z,86.75
2018-02-04T22:30:40.421Z,87.47
2018-02-04T22:33:08.027Z,89.08
2018-02-04T22:35:35.831Z,89.07
2018-02-04T22:38:03.387Z,88.61
2018-02-04T22:40:30.986Z,88.17
2018-02-04T22:42:58.534Z,88.44
2018-02-04T22:45:26.252Z,88.81
2018-02-04T22:47:53.850Z,87.65
2018-02-04T22:50:21.404Z,88.05
2018-02-04T22:52:48.996Z,87.63
2018-02-04T22:55:16.612Z,88.01
2018-02-04T22:57:44.198Z,87.31
2018-02-04T23:00:11.832Z,86.72
2018-02-04T23:02:39.409Z,86.60
2018-02-04T23:05:06.971Z,86.71
2018-02-04T23:07:34.840Z,86.75
2018-02-04T23:10:02.420Z,86.38
2018-02-04T23:12:29.982Z,85.26
2018-02-04T23:14:57.533Z,84.58
2018-02-04T23:17:25.119Z,85.31
2018-02-04T23:19:52.685Z,87.96
2018-02-04T23:22:20.234Z,87.42
2018-02-04T23:24:48.062Z,86.34
2018-02-04T23:27:15.648Z,87.02
2018-02-04T23:29:43.211Z,87.47
2018-02-04T23:32:10.835Z,86.83
2018-02-04T23:34:38.412Z,86.33
2018-02-04T23:37:05.974Z,84.49
2018-02-04T23:39:33.797Z,85.56
2018-02-04T23:42:01.484Z,85.72
2018-02-04T23:44:29.040Z,85.46
2018-02-04T23:46:56.630Z,84.94
2018-02-04T23:49:24.185Z,84.64
2018-02-04T23:51:51.751Z,85.92
2018-02-04T23:54:19.344Z,86.67
2018-02-04T23:56:46.902Z,86.13
2018-02-04T23:59:14.463Z,85.12
